createdAt,value
2019-06-26T00:00:45.695Z,99.90
2019-06-26T00:03:33.951Z,99.90
2019-06-26T00:06:21.810Z,99.90
2019-06-26T00:09:10.074Z,99.90
2019-06-26T00:11:57.582Z,99.90
2019-06-26T00:14:45.049Z,99.90
2019-06-26T00:17:32.629Z,99.90
2019-06-26T00:20:20.831Z,99.90
2019-06-26T00:23:08.222Z,99.90
2019-06-26T00:25:55.715Z,99.90
2019-06-26T00:28:43.197Z,99.90
2019-06-26T00:31:30.629Z,99.90
2019-06-26T00:34:18.632Z,99.90
2019-06-26T00:37:05.993Z,99.90
2019-06-26T00:39:54.114Z,99.90
2019-06-26T00:42:42.113Z,99.90
2019-06-26T00:45:29.768Z,99.90
2019-06-26T00:48:17.007Z,99.90
2019-06-26T00:51:05.041Z,99.90
2019-06-26T00:53:52.483Z,99.90
2019-06-26T00:56:40.339Z,99.90
2019-06-26T00:59:28.162Z,99.90
2019-06-26T01:02:16.057Z,99.90
2019-06-26T01:05:05.608Z,99.90
2019-06-26T01:07:53.319Z,99.90
2019-06-26T01:10:40.910Z,99.90
2019-06-26T01:13:28.363Z,99.90
2019-06-26T01:16:16.070Z,99.90
2019-06-26T01:19:03.460Z,99.90
2019-06-26T01:21:50.713Z,99.90
2019-06-26T01:24:38.522Z,99.90
2019-06-26T01:27:25.471Z,99.90
2019-06-26T01:30:13.236Z,99.90
2019-06-26T01:33:00.129Z,99.90
2019-06-26T01:35:47.637Z,99.90
2019-06-26T01:38:34.846Z,99.90
2019-06-26T01:41:22.374Z,99.90
2019-06-26T01:44:14.982Z,99.90
2019-06-26T01:46:59.865Z,99.90
2019-06-26T01:49:47.367Z,99.90
2019-06-26T01:52:34.760Z,99.90
2019-06-26T01:55:22.840Z,99.90
2019-06-26T01:58:10.580Z,99.90
2019-06-26T02:00:58.375Z,99.90
2019-06-26T02:03:45.931Z,99.90
2019-06-26T02:06:34.059Z,99.90
2019-06-26T02:09:21.511Z,99.90
2019-06-26T02:12:08.952Z,99.90
2019-06-26T02:14:56.610Z,99.90
2019-06-26T02:17:44.869Z,99.90
2019-06-26T02:20:32.339Z,99.90
2019-06-26T02:23:19.763Z,99.90
2019-06-26T02:26:07.009Z,99.90
2019-06-26T02:28:54.472Z,99.90
2019-06-26T02:31:41.796Z,99.90
2019-06-26T02:34:29.064Z,99.90
2019-06-26T02:37:16.829Z,99.90
2019-06-26T02:40:06.937Z,99.90
2019-06-26T02:42:54.080Z,99.90
2019-06-26T02:45:41.750Z,99.90
2019-06-26T02:48:29.774Z,99.90
2019-06-26T02:51:17.709Z,99.90
2019-06-26T02:54:05.815Z,99.90
2019-06-26T02:56:52.743Z,99.90
2019-06-26T02:59:40.775Z,99.90
2019-06-26T03:02:28.374Z,99.90
2019-06-26T03:05:15.788Z,99.90
2019-06-26T03:08:03.598Z,99.90
2019-06-26T03:10:51.366Z,99.90
2019-06-26T03:13:39.134Z,99.90
2019-06-26T03:16:26.846Z,99.90
2019-06-26T03:19:14.464Z,99.90
2019-06-26T03:22:01.687Z,99.90
2019-06-26T03:24:49.604Z,99.90
2019-06-26T03:27:37.071Z,99.90
2019-06-26T03:30:25.196Z,99.90
2019-06-26T03:33:13.016Z,99.90
2019-06-26T03:36:00.383Z,99.90
2019-06-26T03:38:48.201Z,99.90
2019-06-26T03:41:36.116Z,99.90
2019-06-26T03:44:23.253Z,99.90
2019-06-26T03:47:10.677Z,99.90
2019-06-26T03:49:58.597Z,99.90
2019-06-26T03:52:46.582Z,99.90
2019-06-26T03:55:34.246Z,99.90
2019-06-26T03:58:21.755Z,99.90
2019-06-26T04:01:09.233Z,99.90
2019-06-26T04:03:57.579Z,99.90
2019-06-26T04:06:45.080Z,99.90
2019-06-26T04:09:32.753Z,99.90
2019-06-26T04:12:20.191Z,99.90
2019-06-26T04:15:08.205Z,99.90
2019-06-26T04:17:55.801Z,99.90
2019-06-26T04:20:43.197Z,99.90
2019-06-26T04:23:30.882Z,99.90
2019-06-26T04:26:18.095Z,99.90
2019-06-26T04:29:05.624Z,99.90
2019-06-26T04:31:53.308Z,99.90
2019-06-26T04:34:40.891Z,99.90
2019-06-26T04:37:28.446Z,99.90
2019-06-26T04:40:15.930Z,99.90
2019-06-26T04:43:03.269Z,99.90
2019-06-26T04:45:58.238Z,99.90
2019-06-26T04:48:40.376Z,99.90
2019-06-26T04:51:27.848Z,99.90
2019-06-26T04:54:15.441Z,99.90
2019-06-26T04:57:02.860Z,99.90
2019-06-26T04:59:50.374Z,99.90
2019-06-26T05:02:37.852Z,99.90
2019-06-26T05:05:38.614Z,99.90
2019-06-26T05:08:14.493Z,99.90
2019-06-26T05:11:01.872Z,99.90
2019-06-26T05:13:49.189Z,99.90
2019-06-26T05:16:37.217Z,99.90
2019-06-26T05:19:24.978Z,99.90
2019-06-26T05:22:12.858Z,99.90
2019-06-26T05:25:00.247Z,99.90
2019-06-26T05:27:48.070Z,99.90
2019-06-26T05:30:35.561Z,99.90
2019-06-26T05:33:22.987Z,99.90
2019-06-26T05:36:10.493Z,99.90
2019-06-26T05:38:57.889Z,99.90
2019-06-26T05:41:45.852Z,99.90
2019-06-26T05:44:33.208Z,99.90
2019-06-26T05:47:22.172Z,99.90
2019-06-26T05:50:11.001Z,99.90
2019-06-26T05:52:58.622Z,99.90
2019-06-26T05:55:46.439Z,99.90
2019-06-26T05:58:34.418Z,99.90
2019-06-26T06:01:22.022Z,99.90
2019-06-26T06:04:09.283Z,99.90
2019-06-26T06:06:56.829Z,99.90
2019-06-26T06:09:44.349Z,99.90
2019-06-26T06:12:32.012Z,99.90
2019-06-26T06:15:19.777Z,99.90
2019-06-26T06:18:07.516Z,99.90
2019-06-26T06:20:55.037Z,99.90
2019-06-26T06:23:42.860Z,99.90
2019-06-26T06:26:30.164Z,99.90
2019-06-26T06:29:17.756Z,99.90
2019-06-26T06:32:05.540Z,99.90
2019-06-26T06:34:53.146Z,99.90
2019-06-26T06:37:40.629Z,99.90
2019-06-26T06:40:28.555Z,99.90
2019-06-26T06:43:15.903Z,99.90
2019-06-26T06:46:03.952Z,99.90
2019-06-26T06:48:51.528Z,99.90
2019-06-26T06:51:39.304Z,99.90
2019-06-26T06:54:26.680Z,99.90
2019-06-26T06:57:14.187Z,99.90
2019-06-26T07:00:01.822Z,99.90
2019-06-26T07:02:49.363Z,99.90
2019-06-26T07:05:37.146Z,99.90
2019-06-26T07:08:24.757Z,99.90
2019-06-26T07:11:12.880Z,99.90
2019-06-26T07:14:00.377Z,99.90
2019-06-26T07:16:48.265Z,99.90
2019-06-26T07:19:35.956Z,99.90
2019-06-26T07:22:23.847Z,99.90
2019-06-26T07:25:12.426Z,99.90
2019-06-26T07:28:01.908Z,99.90
2019-06-26T07:30:49.464Z,99.90
2019-06-26T07:33:37.597Z,99.90
2019-06-26T07:36:25.422Z,99.90
2019-06-26T07:39:13.045Z,99.90
2019-06-26T07:42:00.997Z,99.90
2019-06-26T07:44:48.755Z,99.90
2019-06-26T07:47:43.073Z,99.90
2019-06-26T07:50:25.197Z,99.90
2019-06-26T07:53:13.151Z,99.90
2019-06-26T07:56:00.920Z,99.90
2019-06-26T07:58:48.267Z,99.90
2019-06-26T08:01:35.984Z,99.90
2019-06-26T08:04:23.392Z,99.90
2019-06-26T08:07:11.236Z,99.90
2019-06-26T08:09:58.690Z,99.90
2019-06-26T08:12:46.234Z,99.90
2019-06-26T08:15:34.094Z,99.90
2019-06-26T08:18:21.642Z,99.90
2019-06-26T08:21:12.457Z,99.90
2019-06-26T08:23:58.653Z,99.90
2019-06-26T08:26:47.857Z,99.90
2019-06-26T08:29:35.321Z,99.90
2019-06-26T08:32:25.913Z,99.90
2019-06-26T08:35:12.451Z,99.90
2019-06-26T08:38:10.212Z,99.90
2019-06-26T08:40:49.534Z,99.90
2019-06-26T08:43:37.352Z,99.90
2019-06-26T08:46:25.031Z,99.90
2019-06-26T08:49:25.109Z,99.90
2019-06-26T08:52:02.407Z,99.90
2019-06-26T08:54:50.045Z,99.90
2019-06-26T08:57:37.919Z,99.90
2019-06-26T09:00:25.629Z,99.90
2019-06-26T09:03:13.362Z,99.90
2019-06-26T09:06:01.050Z,99.90
2019-06-26T09:08:48.419Z,99.90
2019-06-26T09:11:36.354Z,99.90
2019-06-26T09:14:24.095Z,99.90
2019-06-26T09:17:11.821Z,99.90
2019-06-26T09:19:59.525Z,99.90
2019-06-26T09:22:47.583Z,99.90
2019-06-26T09:25:35.790Z,99.90
2019-06-26T09:28:23.456Z,99.90
2019-06-26T09:31:11.075Z,99.90
2019-06-26T09:33:59.193Z,99.90
2019-06-26T09:36:47.116Z,99.90
2019-06-26T09:39:34.878Z,99.90
2019-06-26T09:42:22.663Z,99.90
2019-06-26T09:45:10.444Z,99.90
2019-06-26T09:47:58.739Z,99.90
2019-06-26T09:50:46.268Z,98.90
2019-06-26T09:53:46.632Z,96.90
2019-06-26T09:56:23.207Z,95.50
2019-06-26T09:59:10.797Z,94.80
2019-06-26T10:01:58.553Z,94.00
2019-06-26T10:04:46.267Z,91.40
2019-06-26T10:07:33.824Z,92.10
2019-06-26T10:10:21.522Z,92.50
2019-06-26T10:13:08.901Z,92.10
2019-06-26T10:16:00.163Z,92.00
2019-06-26T10:18:45.664Z,90.60
2019-06-26T10:21:33.733Z,84.10
2019-06-26T10:24:21.188Z,85.50
2019-06-26T10:27:08.703Z,84.50
2019-06-26T10:29:56.481Z,85.50
2019-06-26T10:32:43.907Z,85.70
2019-06-26T10:35:31.368Z,84.30
2019-06-26T10:38:19.054Z,79.30
2019-06-26T10:41:06.884Z,78.50
2019-06-26T10:43:54.286Z,76.60
2019-06-26T10:46:41.965Z,73.00
2019-06-26T10:49:29.851Z,74.80
2019-06-26T10:52:17.480Z,74.00
2019-06-26T10:55:07.326Z,74.60
2019-06-26T10:57:54.796Z,72.90
2019-06-26T11:00:42.705Z,72.80
2019-06-26T11:03:30.796Z,72.20
2019-06-26T11:06:18.531Z,71.40
2019-06-26T11:09:08.200Z,67.90
2019-06-26T11:11:55.745Z,70.00
2019-06-26T11:14:43.372Z,66.90
2019-06-26T11:17:30.694Z,69.00
2019-06-26T11:20:18.971Z,67.80
2019-06-26T11:23:06.632Z,66.30
2019-06-26T11:25:54.761Z,67.60
2019-06-26T11:28:41.853Z,64.90
2019-06-26T11:31:29.578Z,67.20
2019-06-26T11:34:17.391Z,65.20
2019-06-26T11:37:05.225Z,62.70
2019-06-26T11:39:52.969Z,62.90
2019-06-26T11:42:40.700Z,61.10
2019-06-26T11:45:28.546Z,59.80
2019-06-26T11:48:16.261Z,60.20
2019-06-26T11:51:04.034Z,60.40
2019-06-26T11:53:51.750Z,59.30
2019-06-26T11:56:39.541Z,59.70
2019-06-26T11:59:27.357Z,59.00
2019-06-26T12:02:15.000Z,63.00
2019-06-26T12:05:02.855Z,59.60
2019-06-26T12:07:50.529Z,57.90
2019-06-26T12:10:38.113Z,59.40
2019-06-26T12:13:26.258Z,58.00
2019-06-26T12:16:13.729Z,58.10
2019-06-26T12:19:01.897Z,56.40
2019-06-26T12:21:49.520Z,56.50
2019-06-26T12:24:36.974Z,55.10
2019-06-26T12:27:24.650Z,57.70
2019-06-26T12:30:15.823Z,56.30
2019-06-26T12:33:03.886Z,54.70
2019-06-26T12:35:51.508Z,54.40
2019-06-26T12:38:39.245Z,57.60
2019-06-26T12:41:26.838Z,54.80
2019-06-26T12:44:14.592Z,53.60
2019-06-26T12:47:02.166Z,53.30
2019-06-26T12:49:50.089Z,54.30
2019-06-26T12:52:38.163Z,52.00
2019-06-26T12:55:26.011Z,52.60
2019-06-26T12:58:19.232Z,54.60
2019-06-26T13:01:02.676Z,52.80
2019-06-26T13:03:50.457Z,52.10
2019-06-26T13:06:38.335Z,51.20
2019-06-26T13:09:25.803Z,52.00
2019-06-26T13:12:13.394Z,52.30
2019-06-26T13:15:01.118Z,52.20
2019-06-26T13:17:48.691Z,52.00
2019-06-26T13:20:51.525Z,51.40
2019-06-26T13:23:25.556Z,51.30
2019-06-26T13:26:13.418Z,52.40
2019-06-26T13:29:00.936Z,51.40
2019-06-26T13:31:48.454Z,48.00
2019-06-26T13:34:36.322Z,49.50
2019-06-26T13:37:24.102Z,50.40
2019-06-26T13:40:11.704Z,50.60
2019-06-26T13:42:59.562Z,51.30
2019-06-26T13:45:46.901Z,50.90
2019-06-26T13:48:34.777Z,51.40
2019-06-26T13:51:22.287Z,50.70
2019-06-26T13:54:09.716Z,49.50
2019-06-26T13:56:57.025Z,49.50
2019-06-26T13:59:44.829Z,51.50
2019-06-26T14:02:32.604Z,51.20
2019-06-26T14:05:20.824Z,53.00
2019-06-26T14:08:08.644Z,52.80
2019-06-26T14:10:56.103Z,51.40
2019-06-26T14:13:43.348Z,51.70
2019-06-26T14:16:30.483Z,48.40
2019-06-26T14:19:17.971Z,46.90
2019-06-26T14:22:05.772Z,45.90
2019-06-26T14:24:54.318Z,49.10
2019-06-26T14:27:42.340Z,48.50
2019-06-26T14:30:30.308Z,49.50
2019-06-26T14:33:18.237Z,49.40
2019-06-26T14:36:05.741Z,48.80
2019-06-26T14:38:53.291Z,47.20
2019-06-26T14:41:41.060Z,47.50
2019-06-26T14:44:28.548Z,46.00
2019-06-26T14:47:16.125Z,46.40
2019-06-26T14:50:06.782Z,47.70
2019-06-26T14:52:54.584Z,46.30
2019-06-26T14:55:42.013Z,45.90
2019-06-26T14:58:29.545Z,46.40
2019-06-26T15:01:17.351Z,47.70
2019-06-26T15:04:04.961Z,47.60
2019-06-26T15:06:53.284Z,47.10
2019-06-26T15:09:40.859Z,46.00
2019-06-26T15:12:28.872Z,47.10
2019-06-26T15:15:18.184Z,47.10
2019-06-26T15:18:05.622Z,46.60
2019-06-26T15:20:53.568Z,46.70
2019-06-26T15:23:41.090Z,47.30
2019-06-26T15:26:28.949Z,47.30
2019-06-26T15:29:16.434Z,48.00
2019-06-26T15:32:04.576Z,47.40
2019-06-26T15:34:52.573Z,47.10
2019-06-26T15:37:40.390Z,47.70
2019-06-26T15:40:28.270Z,49.20
2019-06-26T15:43:15.870Z,48.60
2019-06-26T15:46:03.624Z,48.30
2019-06-26T15:48:51.501Z,48.50
2019-06-26T15:51:39.264Z,48.20
2019-06-26T15:54:26.875Z,49.50
2019-06-26T15:57:14.822Z,49.80
2019-06-26T16:00:02.938Z,47.80
2019-06-26T16:02:50.683Z,47.40
2019-06-26T16:05:38.185Z,48.10
2019-06-26T16:08:25.939Z,48.30
2019-06-26T16:11:13.474Z,48.10
2019-06-26T16:14:01.078Z,48.90
2019-06-26T16:16:50.561Z,50.80
2019-06-26T16:19:38.335Z,49.30
2019-06-26T16:22:32.405Z,50.40
2019-06-26T16:25:16.099Z,50.30
2019-06-26T16:28:05.665Z,50.20
2019-06-26T16:30:52.942Z,51.40
2019-06-26T16:33:40.782Z,51.00
2019-06-26T16:36:28.498Z,51.70
2019-06-26T16:39:15.907Z,52.90
2019-06-26T16:42:03.510Z,52.40
2019-06-26T16:44:51.438Z,52.80
2019-06-26T16:47:39.835Z,52.60
2019-06-26T16:50:27.678Z,53.40
2019-06-26T16:53:15.135Z,54.60
2019-06-26T16:56:02.946Z,55.90
2019-06-26T16:58:50.529Z,56.20
2019-06-26T17:01:38.130Z,57.10
2019-06-26T17:04:26.180Z,57.40
2019-06-26T17:07:13.933Z,58.00
2019-06-26T17:10:01.042Z,59.60
2019-06-26T17:12:48.407Z,59.00
2019-06-26T17:15:36.394Z,59.20
2019-06-26T17:18:24.216Z,60.30
2019-06-26T17:21:11.823Z,59.70
2019-06-26T17:23:59.512Z,59.60
2019-06-26T17:26:46.986Z,60.60
2019-06-26T17:29:34.590Z,60.60
2019-06-26T17:32:22.153Z,61.70
2019-06-26T17:35:10.955Z,62.30
2019-06-26T17:37:58.833Z,62.50
2019-06-26T17:40:46.355Z,63.00
2019-06-26T17:43:34.096Z,64.20
2019-06-26T17:46:22.120Z,64.70
2019-06-26T17:49:09.753Z,66.20
2019-06-26T17:51:57.386Z,66.00
2019-06-26T17:54:45.176Z,65.00
2019-06-26T17:57:33.081Z,67.20
2019-06-26T18:00:23.597Z,66.90
2019-06-26T18:03:11.176Z,68.50
2019-06-26T18:05:58.497Z,67.40
2019-06-26T18:08:46.423Z,67.50
2019-06-26T18:11:34.526Z,67.20
2019-06-26T18:14:22.382Z,67.60
2019-06-26T18:17:21.479Z,68.90
2019-06-26T18:19:59.405Z,67.70
2019-06-26T18:22:47.274Z,68.60
2019-06-26T18:25:34.972Z,68.10
2019-06-26T18:28:22.619Z,67.90
2019-06-26T18:31:10.240Z,70.30
2019-06-26T18:33:57.707Z,70.60
2019-06-26T18:36:45.269Z,73.10
2019-06-26T18:39:32.803Z,75.30
2019-06-26T18:42:20.820Z,78.40
2019-06-26T18:45:08.891Z,81.00
2019-06-26T18:47:56.644Z,82.10
2019-06-26T18:50:44.173Z,82.80
2019-06-26T18:53:32.130Z,83.80
2019-06-26T18:56:19.496Z,84.60
2019-06-26T18:59:07.159Z,86.10
2019-06-26T19:01:54.938Z,86.30
2019-06-26T19:04:42.534Z,87.40
2019-06-26T19:07:29.696Z,88.80
2019-06-26T19:10:17.409Z,90.20
2019-06-26T19:13:05.167Z,90.60
2019-06-26T19:15:53.032Z,90.70
2019-06-26T19:18:42.655Z,91.40
2019-06-26T19:21:29.892Z,91.40
2019-06-26T19:24:18.263Z,92.30
2019-06-26T19:27:07.710Z,92.60
2019-06-26T19:29:55.880Z,93.20
2019-06-26T19:32:43.912Z,93.70
2019-06-26T19:35:32.285Z,94.50
2019-06-26T19:38:20.221Z,94.90
2019-06-26T19:41:08.881Z,95.30
2019-06-26T19:43:56.508Z,95.70
2019-06-26T19:46:44.856Z,96.70
2019-06-26T19:49:32.798Z,97.10
2019-06-26T19:52:20.662Z,97.40
2019-06-26T19:55:08.778Z,97.80
2019-06-26T19:57:56.384Z,97.90
2019-06-26T20:00:44.532Z,97.60
2019-06-26T20:03:32.259Z,97.60
2019-06-26T20:06:20.048Z,98.10
2019-06-26T20:09:08.320Z,98.00
2019-06-26T20:11:56.269Z,98.20
2019-06-26T20:14:43.906Z,98.30
2019-06-26T20:17:31.652Z,99.00
2019-06-26T20:20:19.559Z,99.90
2019-06-26T20:23:07.844Z,99.90
2019-06-26T20:25:55.847Z,99.90
2019-06-26T20:28:43.705Z,99.90
2019-06-26T20:31:31.881Z,99.90
2019-06-26T20:34:20.022Z,99.90
2019-06-26T20:37:08.215Z,99.90
2019-06-26T20:39:56.421Z,99.90
2019-06-26T20:42:44.533Z,99.90
2019-06-26T20:45:32.373Z,99.90
2019-06-26T20:48:20.148Z,99.90
2019-06-26T20:51:08.256Z,99.90
2019-06-26T20:53:56.361Z,99.90
2019-06-26T20:56:43.874Z,99.90
2019-06-26T20:59:32.109Z,99.90
2019-06-26T21:02:20.387Z,99.90
2019-06-26T21:05:10.180Z,99.90
2019-06-26T21:07:58.078Z,99.90
2019-06-26T21:10:46.591Z,99.90
2019-06-26T21:13:34.667Z,99.90
2019-06-26T21:16:22.867Z,99.90
2019-06-26T21:19:10.676Z,99.90
2019-06-26T21:21:58.799Z,99.90
2019-06-26T21:24:46.945Z,99.90
2019-06-26T21:27:34.627Z,99.90
2019-06-26T21:30:22.621Z,99.90
2019-06-26T21:33:10.606Z,99.90
2019-06-26T21:35:58.638Z,99.90
2019-06-26T21:38:46.810Z,99.90
2019-06-26T21:41:34.831Z,99.90
2019-06-26T21:44:22.909Z,99.90
2019-06-26T21:47:10.595Z,99.90
2019-06-26T21:49:58.733Z,99.90
2019-06-26T21:52:46.987Z,99.90
2019-06-26T21:55:35.165Z,99.90
2019-06-26T21:58:23.366Z,99.90
2019-06-26T22:01:11.447Z,99.90
2019-06-26T22:03:59.768Z,99.90
2019-06-26T22:06:47.658Z,99.90
2019-06-26T22:09:35.742Z,99.90
2019-06-26T22:12:23.768Z,99.90
2019-06-26T22:15:11.681Z,99.90
2019-06-26T22:17:59.577Z,99.90
2019-06-26T22:20:47.763Z,99.90
2019-06-26T22:23:36.005Z,99.90
2019-06-26T22:26:23.659Z,99.90
2019-06-26T22:29:11.877Z,99.90
2019-06-26T22:31:59.960Z,99.90
2019-06-26T22:34:48.248Z,99.90
2019-06-26T22:37:36.419Z,99.90
2019-06-26T22:40:24.769Z,99.90
2019-06-26T22:43:13.026Z,99.90
2019-06-26T22:46:00.863Z,99.90
2019-06-26T22:48:49.248Z,99.90
2019-06-26T22:51:37.136Z,99.90
2019-06-26T22:54:25.100Z,99.90
2019-06-26T22:57:12.886Z,99.90
2019-06-26T23:00:01.076Z,99.90
2019-06-26T23:02:48.662Z,99.90
2019-06-26T23:05:37.154Z,99.90
2019-06-26T23:08:25.369Z,99.90
2019-06-26T23:11:13.130Z,99.90
2019-06-26T23:14:01.010Z,99.90
2019-06-26T23:16:49.173Z,99.90
2019-06-26T23:19:37.322Z,99.90
2019-06-26T23:22:25.394Z,99.90
2019-06-26T23:25:13.676Z,99.90
2019-06-26T23:28:01.546Z,99.90
2019-06-26T23:30:49.721Z,99.90
2019-06-26T23:33:37.854Z,99.90
2019-06-26T23:36:26.053Z,99.90
2019-06-26T23:39:13.959Z,99.90
2019-06-26T23:42:01.825Z,99.90
2019-06-26T23:44:49.424Z,99.90
2019-06-26T23:47:36.959Z,99.90
2019-06-26T23:50:25.078Z,99.90
2019-06-26T23:53:12.922Z,99.90
2019-06-26T23:56:00.683Z,99.90
2019-06-26T23:58:49.114Z,99.90
